Nearby METAR Reports

 

KGRB - Ashwaubenon, Wisconsin, USA
Distance from station: NW 5mi, 8km
Updated: Tue, 25-Apr-2017 10:53am CDT
Clear
Clear
 Wind from SE
Wind: SE 13 mph , 20 km/h
Temperature: 64°F , 18°C
Dew Point: 52°F , 11°C
Humidity: 64%
Barometer: 29.68 inHg , 1005.1 hPa
Clouds: Clear
Visibility: 10 miles , 16 km
2017/04/25 15:53 KGRB 251553Z 14011KT 10SM CLR 18/11 A2968 RMK AO2 SLP051 T01780111
KATW - Appleton/Outagam, Wisconsin, USA
Distance from station: WSW 26mi, 42km
Updated: Tue, 25-Apr-2017 10:45am CDT
Few Clouds
Few Clouds
 Wind from SE
Wind: SE 9 mph , 15 km/h
Temperature: 64°F , 18°C
Dew Point: 43°F , 6°C
Humidity: 46%
Barometer: 29.64 inHg , 1003.7 hPa
Clouds: Few Clouds
Visibility: 10 miles , 16 km
Cloud details: Few Clouds 10000 ft
2017/04/25 15:45 KATW 251545Z 14008KT 10SM FEW100 18/06 A2964
 
KMTW - Manitowac Muni, Wisconsin, USA
Distance from station: SE 29mi, 47km
Updated: Tue, 25-Apr-2017 10:56am CDT
Clear
Clear
 Wind from S
Wind: S 22 mph , 35 km/h, Gust: 28 mph , 44 km/h
Temperature: 54°F , 12°C
Dew Point: 46°F , 8°C
Humidity: 77%
Barometer: 29.70 inHg , 1005.8 hPa
Clouds: Clear
2017/04/25 15:56 KMTW 251556Z AUTO 17019G24KT CLR 12/08 A2970 RMK AO2 SLPNO T01220078 PWINO $
KOCQ - Oconto, Wisconsin, USA
Distance from station: NNE 30mi, 49km
Updated: Tue, 25-Apr-2017 11:15am CDT
Clear
Clear
 Wind from S
Wind: S 12 mph , 19 km/h
Temperature: 61°F , 16°C
Dew Point: 48°F , 9°C
Humidity: 63%
Barometer: 29.68 inHg , 1005.1 hPa
Clouds: Clear
Visibility: 10 miles , 16 km
2017/04/25 16:15 KOCQ 251615Z AUTO 17010KT 10SM CLR 16/09 A2968 RMK AO1 T01640091
 
KEZS - Shawano Muni, Wisconsin, USA
Distance from station: NW 35mi, 56km
Updated: Tue, 25-Apr-2017 11:15am CDT
Clear
Clear
 Wind from SE
Wind: SE 9 mph , 15 km/h
Temperature: 68°F , 20°C
Dew Point: 46°F , 8°C
Humidity: 46%
Barometer: 29.66 inHg , 1004.4 hPa
Clouds: Clear
Visibility: 10 miles , 16 km
2017/04/25 16:15 KEZS 251615Z AUTO 14008KT 10SM CLR 20/08 A2966 RMK AO2 T01990081
KCLI - Clintonville, Wisconsin, USA
Distance from station: WNW 36mi, 58km
Updated: Tue, 25-Apr-2017 11:15am CDT
Clear
Clear
 Wind from S
Wind: S 12 mph , 19 km/h
Temperature: 68°F , 20°C
Dew Point: 41°F , 5°C
Humidity: 38%
Barometer: 29.64 inHg , 1003.7 hPa
Clouds: Clear
Visibility: 10 miles , 16 km
2017/04/25 16:15 KCLI 251615Z AUTO 18010KT 10SM CLR 20/05 A2964 RMK AO2
 
KOSH - Oshkosh, Wisconsin, USA
Distance from station: SW 41mi, 66km
Updated: Tue, 25-Apr-2017 10:53am CDT
Clear
Clear
 Wind from S
Wind: S 14 mph , 22 km/h, Gust: 21 mph , 33 km/h
Temperature: 70°F , 21°C
Dew Point: 46°F , 8°C
Humidity: 43%
Barometer: 29.64 inHg , 1003.7 hPa
Clouds: Clear
Visibility: 10 miles , 16 km
2017/04/25 15:53 KOSH 251553Z 18012G18KT 10SM CLR 21/08 A2964 RMK AO2 SLP032 T02060083
KSUE - Sturgeon Bay, Wisconsin, USA
Distance from station: NE 42mi, 68km
Updated: Tue, 25-Apr-2017 10:56am CDT
Clear
Clear
 Wind from SSE
Wind: SSE 18 mph , 30 km/h, Gust: 26 mph , 43 km/h
Temperature: 57°F , 14°C
Dew Point: 48°F , 9°C
Humidity: 72%
Barometer: 29.69 inHg , 1005.4 hPa
Clouds: Clear
Visibility: 10 miles , 16 km
2017/04/25 15:56 KSUE 251556Z AUTO 16016G23KT 10SM CLR 14/09 A2969 RMK AO2 PK WND 19027/1518 SLP078 T01440089
 
KSBM - Sheboygan, Wisconsin, USA
Distance from station: SSE 46mi, 75km
Updated: Tue, 25-Apr-2017 10:53am CDT
Clear
Clear
 Wind from S
Wind: S 13 mph , 20 km/h
Temperature: 55°F , 13°C
Dew Point: 50°F , 10°C
Humidity: 82%
Barometer: 29.70 inHg , 1005.8 hPa
Clouds: Clear
Visibility: 10 miles , 16 km
2017/04/25 15:53 KSBM 251553Z AUTO 17011KT 10SM CLR 13/10 A2970 RMK AO2 SLP059 T01330100
KPCZ - Waupaca, Wisconsin, USA
Distance from station: W 48mi, 77km
Updated: Tue, 25-Apr-2017 11:15am CDT
Clear
Clear
 Wind from SE
Wind: SE 9 mph , 15 km/h, Gust: 13 mph , 20 km/h
Temperature: 72°F , 22°C
Dew Point: 45°F , 7°C
Humidity: 38%
Barometer: 29.63 inHg , 1003.4 hPa
Clouds: Clear
Visibility: 10 miles , 16 km
2017/04/25 16:15 KPCZ 251615Z AUTO 13008G11KT 10SM CLR 22/07 A2963 RMK AO2 T02170070